Terminal Aerodrome Forecast
Issued by NWS Jackson, KY

Home | Current Version | Previous Version | Text Only | Print | Product List | Glossary On
Versions: 1 2 3 4 5 6 7 8 9 10 11 12 13 14 15 16 17 18 19 20 21 22 23 24 25 26
000
FTUS43 KJKL 181139
TAFJKL
TAF
KJKL 181139Z 1812/1912 VRB03KT 6SM BR FEW250
     FM181300 VRB06KT P6SM FEW050 BKN250
     FM190500 11005KT P6SM VCSH BKN035 OVC100=

USA.gov is the U.S. government's official web portal to all federal, state and local government web resources and services.